createdAt,value
2022-12-18T00:00:10.600Z,96729.34
2022-12-18T00:02:40.774Z,96660.13
2022-12-18T00:05:09.911Z,96656.00
2022-12-18T00:07:39.410Z,96699.44
2022-12-18T00:10:09.222Z,96739.16
2022-12-18T00:12:37.608Z,96744.53
2022-12-18T00:15:06.910Z,96718.03
2022-12-18T00:17:35.390Z,96634.47
2022-12-18T00:20:05.873Z,96721.66
2022-12-18T00:22:34.609Z,96696.38
2022-12-18T00:25:03.259Z,96750.56
2022-12-18T00:27:31.705Z,96754.16
2022-12-18T00:30:00.349Z,96734.97
2022-12-18T00:32:28.823Z,96694.28
2022-12-18T00:34:57.208Z,96756.03
2022-12-18T00:37:26.959Z,96696.72
2022-12-18T00:39:55.402Z,96742.22
2022-12-18T00:42:41.065Z,96616.34
2022-12-18T00:45:12.962Z,96754.66
2022-12-18T00:47:41.931Z,96756.28
2022-12-18T00:50:11.464Z,96771.28
2022-12-18T00:52:41.634Z,96724.84
2022-12-18T00:55:10.255Z,96753.00
2022-12-18T00:57:39.495Z,96740.00
2022-12-18T01:00:11.401Z,96728.97
2022-12-18T01:02:39.942Z,96739.50
2022-12-18T01:05:09.286Z,96711.34
2022-12-18T01:07:37.660Z,96755.78
2022-12-18T01:10:09.997Z,96770.25
2022-12-18T01:12:38.493Z,96765.28
2022-12-18T01:15:09.130Z,96748.59
2022-12-18T01:17:38.306Z,96708.78
2022-12-18T01:20:08.184Z,96771.47
2022-12-18T01:22:37.135Z,96742.38
2022-12-18T01:25:07.832Z,96756.28
2022-12-18T01:27:37.163Z,96766.25
2022-12-18T01:30:06.540Z,96782.81
2022-12-18T01:32:35.790Z,96751.72
2022-12-18T01:35:04.674Z,96750.63
2022-12-18T01:37:32.998Z,96689.25
2022-12-18T01:40:01.404Z,96781.66
2022-12-18T01:42:31.705Z,96753.75
2022-12-18T01:45:03.893Z,96781.09
2022-12-18T01:47:37.220Z,96783.19
2022-12-18T01:50:09.414Z,96746.66
2022-12-18T01:52:39.659Z,96782.22
2022-12-18T01:55:10.472Z,96726.69
2022-12-18T01:57:40.855Z,96710.97
2022-12-18T02:00:12.480Z,96742.97
2022-12-18T02:02:42.037Z,96791.47
2022-12-18T02:05:11.614Z,96783.38
2022-12-18T02:07:51.053Z,96779.75
2022-12-18T02:10:27.437Z,96759.38
2022-12-18T02:13:05.607Z,96793.69
2022-12-18T02:15:41.534Z,96797.03
2022-12-18T02:18:15.711Z,96702.63
2022-12-18T02:20:50.329Z,96797.84
2022-12-18T02:23:41.036Z,96783.13
2022-12-18T02:26:22.658Z,96789.75
2022-12-18T02:28:56.883Z,96696.03
2022-12-18T02:31:28.533Z,96799.50
2022-12-18T02:33:59.847Z,96786.03
2022-12-18T02:36:30.922Z,96779.25
2022-12-18T02:39:01.456Z,96768.97
2022-12-18T02:41:32.656Z,96741.16
2022-12-18T02:44:09.075Z,96731.53
2022-12-18T02:46:40.363Z,96753.63
2022-12-18T02:49:21.512Z,96758.97
2022-12-18T02:51:55.165Z,96751.31
2022-12-18T02:54:39.065Z,96775.28
2022-12-18T02:57:18.594Z,96785.16
2022-12-18T02:59:55.361Z,96786.84
2022-12-18T03:02:32.891Z,96762.09
2022-12-18T03:05:08.212Z,96782.38
2022-12-18T03:07:41.471Z,96666.34
2022-12-18T03:10:14.247Z,96777.84
2022-12-18T03:12:50.057Z,96751.22
2022-12-18T03:15:23.508Z,96772.88
2022-12-18T03:18:02.610Z,96771.19
2022-12-18T03:20:34.697Z,96715.81
2022-12-18T03:23:10.646Z,96783.56
2022-12-18T03:25:43.202Z,96753.25
2022-12-18T03:28:16.875Z,96773.06
2022-12-18T03:30:47.025Z,96785.25
2022-12-18T03:33:21.680Z,96763.84
2022-12-18T03:35:50.755Z,96673.84
2022-12-18T03:38:19.266Z,96789.25
2022-12-18T03:40:56.332Z,96768.41
2022-12-18T03:43:35.710Z,96789.50
2022-12-18T03:46:10.369Z,96794.84
2022-12-18T03:48:44.308Z,96756.44
2022-12-18T03:51:19.392Z,96746.66
2022-12-18T03:53:54.800Z,96766.94
2022-12-18T03:56:25.230Z,96797.47
2022-12-18T03:58:57.338Z,96720.91
2022-12-18T04:01:31.508Z,96599.34
2022-12-18T04:04:02.641Z,96786.19
2022-12-18T04:06:32.364Z,96722.66
2022-12-18T04:09:01.440Z,96779.38
2022-12-18T04:11:30.091Z,96789.75
2022-12-18T04:14:02.726Z,96714.53
2022-12-18T04:16:34.331Z,96787.63
2022-12-18T04:19:02.869Z,96777.19
2022-12-18T04:21:31.412Z,96782.16
2022-12-18T04:23:59.796Z,96783.66
2022-12-18T04:26:28.277Z,96793.94
2022-12-18T04:28:56.746Z,96784.72
2022-12-18T04:31:26.695Z,96789.81
2022-12-18T04:33:55.152Z,96783.91
2022-12-18T04:36:23.515Z,96657.63
2022-12-18T04:38:52.062Z,96788.44
2022-12-18T04:41:20.418Z,96760.13
2022-12-18T04:43:48.875Z,96745.31
2022-12-18T04:46:17.522Z,96676.06
2022-12-18T04:48:48.981Z,96789.47
2022-12-18T04:51:20.855Z,96716.06
2022-12-18T04:53:53.144Z,96744.03
2022-12-18T04:56:21.731Z,96797.13
2022-12-18T04:58:50.359Z,96724.25
2022-12-18T05:01:20.439Z,96800.56
2022-12-18T05:03:50.711Z,96784.00
2022-12-18T05:06:19.162Z,96743.31
2022-12-18T05:08:47.716Z,96771.28
2022-12-18T05:11:17.906Z,96809.56
2022-12-18T05:13:48.031Z,96815.75
2022-12-18T05:16:17.406Z,96780.81
2022-12-18T05:18:46.673Z,96802.69
2022-12-18T05:21:16.599Z,96794.16
2022-12-18T05:23:45.054Z,96792.50
2022-12-18T05:26:18.214Z,96700.00
2022-12-18T05:28:47.200Z,96803.63
2022-12-18T05:31:16.157Z,96769.53
2022-12-18T05:33:44.853Z,96794.84
2022-12-18T05:36:13.664Z,96764.91
2022-12-18T05:38:44.019Z,96763.81
2022-12-18T05:41:12.718Z,96791.28
2022-12-18T05:43:42.763Z,96765.16
2022-12-18T05:46:14.653Z,96780.06
2022-12-18T05:48:43.360Z,96779.94
2022-12-18T05:51:13.851Z,96800.75
2022-12-18T05:53:44.143Z,96731.59
2022-12-18T05:56:16.969Z,96811.94
2022-12-18T05:58:45.883Z,96801.59
2022-12-18T06:01:16.716Z,96785.16
2022-12-18T06:03:46.008Z,96821.16
2022-12-18T06:06:19.665Z,96802.84
2022-12-18T06:08:49.641Z,96783.63
2022-12-18T06:11:20.967Z,96813.31
2022-12-18T06:13:57.669Z,96818.53
2022-12-18T06:16:27.100Z,96722.38
2022-12-18T06:18:55.974Z,96817.34
2022-12-18T06:21:24.351Z,96710.13
2022-12-18T06:23:54.402Z,96749.44
2022-12-18T06:26:27.833Z,96820.66
2022-12-18T06:28:56.825Z,96820.41
2022-12-18T06:31:25.854Z,96821.81
2022-12-18T06:33:54.559Z,96821.56
2022-12-18T06:36:23.119Z,96791.03
2022-12-18T06:38:51.817Z,96764.53
2022-12-18T06:41:23.446Z,96823.53
2022-12-18T06:43:55.573Z,96770.25
2022-12-18T06:46:26.655Z,96644.78
2022-12-18T06:48:55.083Z,96813.84
2022-12-18T06:51:25.029Z,96803.81
2022-12-18T06:53:53.500Z,96807.16
2022-12-18T06:56:24.371Z,96786.88
2022-12-18T06:58:53.031Z,96753.91
2022-12-18T07:01:21.692Z,96721.72
2022-12-18T07:03:54.579Z,96801.78
2022-12-18T07:06:25.005Z,96797.38
2022-12-18T07:08:54.456Z,96723.06
2022-12-18T07:11:24.388Z,96768.84
2022-12-18T07:13:52.866Z,96807.75
2022-12-18T07:16:25.531Z,96786.50
2022-12-18T07:18:54.418Z,96811.91
2022-12-18T07:21:23.955Z,96825.94
2022-12-18T07:23:52.753Z,96826.25
2022-12-18T07:26:24.377Z,96833.56
2022-12-18T07:28:56.947Z,96816.94
2022-12-18T07:31:26.003Z,96836.44
2022-12-18T07:33:55.116Z,96846.38
2022-12-18T07:36:26.139Z,96844.47
2022-12-18T07:38:54.767Z,96841.88
2022-12-18T07:41:24.572Z,96793.25
2022-12-18T07:43:52.926Z,96861.41
2022-12-18T07:46:22.200Z,96864.97
2022-12-18T07:48:50.637Z,96865.84
2022-12-18T07:51:20.194Z,96870.00
2022-12-18T07:53:51.983Z,96875.78
2022-12-18T07:56:30.320Z,96802.06
2022-12-18T07:59:03.864Z,96870.03
2022-12-18T08:01:32.625Z,96827.75
2022-12-18T08:04:01.198Z,96790.09
2022-12-18T08:06:29.527Z,96864.22
2022-12-18T08:08:59.139Z,96864.16
2022-12-18T08:11:29.171Z,96834.38
2022-12-18T08:13:58.122Z,96891.66
2022-12-18T08:16:28.437Z,96860.22
2022-12-18T08:18:57.162Z,96770.22
2022-12-18T08:21:27.426Z,96881.78
2022-12-18T08:23:57.991Z,96887.72
2022-12-18T08:26:28.244Z,96856.13
2022-12-18T08:28:57.386Z,96812.56
2022-12-18T08:31:28.228Z,96863.03
2022-12-18T08:33:57.583Z,96832.72
2022-12-18T08:36:27.764Z,96829.53
2022-12-18T08:38:56.811Z,96794.22
2022-12-18T08:41:25.487Z,96834.06
2022-12-18T08:44:11.025Z,96855.28
2022-12-18T08:46:43.228Z,96850.63
2022-12-18T08:49:12.689Z,96780.56
2022-12-18T08:51:41.747Z,96847.84
2022-12-18T08:54:13.180Z,96857.38
2022-12-18T08:56:41.662Z,96816.81
2022-12-18T08:59:17.551Z,96830.59
2022-12-18T09:01:50.669Z,96854.16
2022-12-18T09:04:19.560Z,96850.84
2022-12-18T09:06:49.029Z,96843.06
2022-12-18T09:09:17.349Z,96828.44
2022-12-18T09:11:45.943Z,96570.56
2022-12-18T09:14:14.561Z,96851.56
2022-12-18T09:16:42.994Z,96860.94
2022-12-18T09:19:13.316Z,96835.09
2022-12-18T09:21:47.484Z,96790.25
2022-12-18T09:24:16.999Z,96842.56
2022-12-18T09:26:47.539Z,96847.63
2022-12-18T09:29:18.865Z,96838.31
2022-12-18T09:31:47.523Z,96830.56
2022-12-18T09:34:17.655Z,96831.28
2022-12-18T09:36:46.182Z,96798.59
2022-12-18T09:39:15.803Z,96822.81
2022-12-18T09:41:48.561Z,96825.34
2022-12-18T09:44:24.014Z,96821.69
2022-12-18T09:46:58.230Z,96818.31
2022-12-18T09:49:31.644Z,96801.88
2022-12-18T09:52:06.314Z,96774.22
2022-12-18T09:54:38.373Z,96813.50
2022-12-18T09:57:07.018Z,96820.81
2022-12-18T09:59:39.193Z,96811.22
2022-12-18T10:02:23.611Z,96789.50
2022-12-18T10:05:03.662Z,96785.72
2022-12-18T10:07:42.513Z,96817.00
2022-12-18T10:10:21.933Z,96804.56
2022-12-18T10:13:04.102Z,96787.09
2022-12-18T10:15:38.767Z,96721.91
2022-12-18T10:18:22.119Z,96805.16
2022-12-18T10:20:55.556Z,96770.72
2022-12-18T10:23:29.909Z,96744.38
2022-12-18T10:26:04.103Z,96792.91
2022-12-18T10:28:34.250Z,96795.22
2022-12-18T10:31:03.043Z,96780.09
2022-12-18T10:33:33.649Z,96785.72
2022-12-18T10:36:04.351Z,96776.97
2022-12-18T10:38:34.144Z,96783.72
2022-12-18T10:41:05.677Z,96781.13
2022-12-18T10:43:35.824Z,96742.19
2022-12-18T10:46:15.694Z,96712.66
2022-12-18T10:48:53.774Z,96775.47
2022-12-18T10:51:27.275Z,96736.56
2022-12-18T10:54:03.779Z,96782.38
2022-12-18T10:56:35.820Z,96794.25
2022-12-18T10:59:06.946Z,96788.63
2022-12-18T11:01:50.081Z,96792.63
2022-12-18T11:04:24.763Z,96784.00
2022-12-18T11:07:02.340Z,96778.66
2022-12-18T11:09:33.339Z,96787.25
2022-12-18T11:12:04.222Z,96787.53
2022-12-18T11:14:35.768Z,96774.66
2022-12-18T11:19:57.474Z,96765.94
2022-12-18T11:22:30.250Z,96789.50
2022-12-18T11:25:30.836Z,96788.13
2022-12-18T11:27:51.900Z,96727.97
2022-12-18T11:30:25.408Z,96795.88
2022-12-18T11:32:56.652Z,96787.38
2022-12-18T11:35:32.747Z,96804.72
2022-12-18T11:38:13.457Z,96769.47
2022-12-18T11:40:46.500Z,96779.91
2022-12-18T11:43:19.392Z,96786.81
2022-12-18T11:45:55.456Z,96777.06
2022-12-18T11:48:28.387Z,96778.88
2022-12-18T11:50:59.654Z,96766.00
2022-12-18T11:53:30.448Z,96770.81
2022-12-18T11:56:09.148Z,96746.91
2022-12-18T11:58:59.955Z,96732.25
2022-12-18T12:01:44.490Z,96753.53
2022-12-18T12:04:53.031Z,96745.66
2022-12-18T12:07:35.788Z,96744.63
2022-12-18T12:10:18.763Z,96721.59
2022-12-18T12:13:12.904Z,96717.91
2022-12-18T12:15:50.348Z,96720.84
2022-12-18T12:18:30.987Z,96718.03
2022-12-18T12:21:08.710Z,96696.16
2022-12-18T12:23:46.171Z,96706.03
2022-12-18T12:26:25.293Z,96718.19
2022-12-18T12:29:10.659Z,96738.34
2022-12-18T12:32:00.705Z,96741.66
2022-12-18T12:34:36.441Z,96678.72
2022-12-18T12:37:17.234Z,96734.38
2022-12-18T12:39:48.521Z,96717.06
2022-12-18T12:42:42.580Z,96663.25
2022-12-18T12:45:18.793Z,96729.31
2022-12-18T12:47:50.448Z,96723.44
2022-12-18T12:50:22.206Z,96724.28
2022-12-18T12:52:56.103Z,96724.72
2022-12-18T12:55:26.630Z,96717.81
2022-12-18T12:58:07.173Z,96714.63
2022-12-18T13:00:42.374Z,96713.44
2022-12-18T13:03:18.002Z,96703.31
2022-12-18T13:05:52.372Z,96701.56
2022-12-18T13:08:26.812Z,96698.84
2022-12-18T13:13:45.003Z,96690.03
2022-12-18T13:14:23.225Z,96646.53
2022-12-18T13:16:53.092Z,96681.09
2022-12-18T13:19:26.597Z,96664.81
2022-12-18T13:21:57.383Z,96654.94
2022-12-18T13:24:28.703Z,96676.97
2022-12-18T13:26:57.672Z,96664.38
2022-12-18T13:29:47.502Z,96653.13
2022-12-18T13:32:24.039Z,96668.56
2022-12-18T13:35:26.244Z,96667.66
2022-12-18T13:37:56.483Z,96661.81
2022-12-18T13:41:00.118Z,96663.75
2022-12-18T13:43:39.925Z,96646.94
2022-12-18T13:46:22.308Z,96661.09
2022-12-18T13:48:55.580Z,96667.84
2022-12-18T13:51:26.040Z,96616.88
2022-12-18T13:53:57.753Z,96606.81
2022-12-18T13:56:29.396Z,96669.19
2022-12-18T13:59:15.732Z,96669.13
2022-12-18T14:01:48.635Z,96672.53
2022-12-18T14:04:24.042Z,96636.50
2022-12-18T14:06:55.677Z,96658.81
2022-12-18T14:09:28.101Z,96655.88
2022-12-18T14:12:19.635Z,96653.94
2022-12-18T14:14:50.258Z,96651.47
2022-12-18T14:17:23.206Z,96649.72
2022-12-18T14:19:53.601Z,96644.09
2022-12-18T14:22:28.938Z,96625.56
2022-12-18T14:25:16.805Z,96639.78
2022-12-18T14:27:46.673Z,96642.41
2022-12-18T14:30:33.184Z,96642.41
2022-12-18T14:33:08.573Z,96627.34
2022-12-18T14:35:39.184Z,96647.13
2022-12-18T14:38:25.919Z,96645.50
2022-12-18T14:41:01.528Z,96645.56
2022-12-18T14:43:31.587Z,96661.38
2022-12-18T14:46:01.122Z,96570.97
2022-12-18T14:48:42.191Z,96658.09
2022-12-18T14:51:20.014Z,96661.56
2022-12-18T14:53:54.587Z,96631.38
2022-12-18T14:56:25.433Z,96662.63
2022-12-18T14:58:57.130Z,96662.28
2022-12-18T15:01:29.656Z,96663.38
2022-12-18T15:04:01.663Z,96625.16
2022-12-18T15:06:34.341Z,96642.50
2022-12-18T15:09:04.438Z,96647.50
2022-12-18T15:11:45.878Z,96603.31
2022-12-18T15:14:37.173Z,96646.13
2022-12-18T15:17:09.376Z,96629.72
2022-12-18T15:19:42.422Z,96635.22
2022-12-18T15:22:23.617Z,96583.63
2022-12-18T15:24:52.813Z,96616.50
2022-12-18T15:27:28.304Z,96639.88
2022-12-18T15:30:21.698Z,96645.50
2022-12-18T15:32:52.766Z,96639.38
2022-12-18T15:35:24.490Z,96636.06
2022-12-18T15:37:53.764Z,96625.97
2022-12-18T15:40:25.027Z,96577.56
2022-12-18T15:43:14.118Z,96633.91
2022-12-18T15:45:42.461Z,96614.09
2022-12-18T15:48:22.816Z,96646.66
2022-12-18T15:50:56.544Z,96614.00
2022-12-18T15:53:25.817Z,96631.81
2022-12-18T15:56:11.595Z,96624.34
2022-12-18T15:58:40.785Z,96627.75
2022-12-18T16:01:11.199Z,96623.25
2022-12-18T16:03:40.107Z,96620.81
2022-12-18T16:06:11.933Z,96611.69
2022-12-18T16:08:40.303Z,96610.59
2022-12-18T16:11:39.092Z,96596.41
2022-12-18T16:14:15.087Z,96599.06
2022-12-18T16:16:44.785Z,96572.41
2022-12-18T16:19:13.386Z,96583.91
2022-12-18T16:21:43.339Z,96595.06
2022-12-18T16:24:17.417Z,96598.69
2022-12-18T16:26:46.348Z,96569.84
2022-12-18T16:29:14.843Z,96591.59
2022-12-18T16:31:43.482Z,96601.00
2022-12-18T16:34:16.005Z,96609.19
2022-12-18T16:36:45.876Z,96552.25
2022-12-18T16:39:14.239Z,96586.34
2022-12-18T16:41:42.637Z,96583.09
2022-12-18T16:44:11.335Z,96583.25
2022-12-18T16:46:40.203Z,96568.28
2022-12-18T16:49:08.710Z,96583.25
2022-12-18T16:51:37.252Z,96585.88
2022-12-18T16:54:10.294Z,96531.88
2022-12-18T16:56:41.043Z,96577.78
2022-12-18T16:59:10.164Z,96574.88
2022-12-18T17:01:38.627Z,96525.88
2022-12-18T17:04:08.287Z,96546.88
2022-12-18T17:06:44.249Z,96551.47
2022-12-18T17:09:16.191Z,96569.50
2022-12-18T17:11:45.553Z,96560.00
2022-12-18T17:14:17.311Z,96553.34
2022-12-18T17:16:45.849Z,96562.41
2022-12-18T17:19:17.452Z,96542.38
2022-12-18T17:21:46.822Z,96550.63
2022-12-18T17:24:16.843Z,96530.94
2022-12-18T17:26:46.396Z,96548.16
2022-12-18T17:29:18.410Z,96556.94
2022-12-18T17:31:48.218Z,96526.63
2022-12-18T17:34:17.325Z,96523.47
2022-12-18T17:36:45.793Z,96542.06
2022-12-18T17:39:20.574Z,96528.19
2022-12-18T17:41:50.268Z,96499.69
2022-12-18T17:44:19.807Z,96536.56
2022-12-18T17:46:48.260Z,96473.84
2022-12-18T17:49:16.763Z,96538.75
2022-12-18T17:51:45.210Z,96462.69
2022-12-18T17:54:13.649Z,96537.06
2022-12-18T17:56:43.435Z,96553.19
2022-12-18T17:59:12.306Z,96539.59
2022-12-18T18:01:44.387Z,96533.38
2022-12-18T18:04:14.612Z,96561.16
2022-12-18T18:06:43.019Z,96546.28
2022-12-18T18:09:16.860Z,96512.56
2022-12-18T18:12:04.352Z,96548.63
2022-12-18T18:14:33.590Z,96528.91
2022-12-18T18:17:04.795Z,96507.91
2022-12-18T18:19:34.863Z,96548.25
2022-12-18T18:22:03.640Z,96522.75
2022-12-18T18:24:33.236Z,96516.75
2022-12-18T18:27:02.986Z,96469.22
2022-12-18T18:29:31.671Z,96539.88
2022-12-18T18:32:00.642Z,96520.31
2022-12-18T18:34:30.960Z,96549.44
2022-12-18T18:37:02.927Z,96541.31
2022-12-18T18:39:31.479Z,96543.97
2022-12-18T18:41:59.963Z,96541.41
2022-12-18T18:44:29.791Z,96475.59
2022-12-18T18:46:59.082Z,96530.28
2022-12-18T18:49:28.922Z,96525.97
2022-12-18T18:51:59.501Z,96541.47
2022-12-18T18:54:28.144Z,96518.69
2022-12-18T18:57:19.417Z,96535.97
2022-12-18T18:59:47.919Z,96527.09
2022-12-18T19:02:17.635Z,96509.22
2022-12-18T19:04:46.890Z,96440.97
2022-12-18T19:07:26.152Z,96500.53
2022-12-18T19:10:01.531Z,96509.19
2022-12-18T19:12:49.876Z,96502.31
2022-12-18T19:15:19.817Z,96470.22
2022-12-18T19:17:48.237Z,96481.66
2022-12-18T19:20:17.023Z,96459.59
2022-12-18T19:22:52.188Z,96483.69
2022-12-18T19:25:26.961Z,96489.34
2022-12-18T19:28:04.147Z,96507.59
2022-12-18T19:30:40.421Z,96456.41
2022-12-18T19:33:33.990Z,96448.84
2022-12-18T19:35:57.264Z,96505.13
2022-12-18T19:38:25.693Z,96490.63
2022-12-18T19:40:55.027Z,96490.78
2022-12-18T19:43:24.165Z,96395.66
2022-12-18T19:45:57.587Z,96451.66
2022-12-18T19:48:25.978Z,96507.69
2022-12-18T19:50:54.355Z,96453.88
2022-12-18T19:53:22.917Z,96465.63
2022-12-18T19:55:51.372Z,96403.13
2022-12-18T19:58:19.709Z,96461.22
2022-12-18T20:00:50.779Z,96378.19
2022-12-18T20:03:28.693Z,96503.66
2022-12-18T20:06:10.288Z,96492.91
2022-12-18T20:08:38.761Z,96497.00
2022-12-18T20:11:08.290Z,96464.16
2022-12-18T20:13:36.729Z,96496.25
2022-12-18T20:16:06.165Z,96492.22
2022-12-18T20:18:36.000Z,96486.88
2022-12-18T20:21:08.251Z,96495.31
2022-12-18T20:23:39.451Z,96462.75
2022-12-18T20:26:08.774Z,96509.72
2022-12-18T20:28:37.230Z,96433.38
2022-12-18T20:31:10.412Z,96449.81
2022-12-18T20:33:41.600Z,96488.81
2022-12-18T20:36:15.283Z,96452.31
2022-12-18T20:38:45.472Z,96491.09
2022-12-18T20:41:18.894Z,96481.63
2022-12-18T20:43:47.756Z,96478.16
2022-12-18T20:46:18.461Z,96465.72
2022-12-18T20:48:49.034Z,96474.41
2022-12-18T20:51:19.224Z,96478.97
2022-12-18T20:53:48.187Z,96449.06
2022-12-18T20:56:21.349Z,96479.81
2022-12-18T20:58:50.525Z,96471.25
2022-12-18T21:01:25.291Z,96471.75
2022-12-18T21:03:55.731Z,96406.75
2022-12-18T21:06:25.620Z,96467.25
2022-12-18T21:08:53.955Z,96482.31
2022-12-18T21:11:48.079Z,96452.50
2022-12-18T21:14:18.707Z,96428.69
2022-12-18T21:16:47.508Z,96448.56
2022-12-18T21:19:19.675Z,96456.69
2022-12-18T21:21:48.588Z,96477.69
2022-12-18T21:24:17.509Z,96350.16
2022-12-18T21:26:47.265Z,96471.28
2022-12-18T21:29:18.743Z,96469.63
2022-12-18T21:31:48.135Z,96468.00
2022-12-18T21:34:20.158Z,96454.31
2022-12-18T21:36:49.660Z,96460.81
2022-12-18T21:39:18.330Z,96453.78
2022-12-18T21:42:06.936Z,96458.34
2022-12-18T21:44:40.108Z,96454.34
2022-12-18T21:47:22.367Z,96456.50
2022-12-18T21:49:54.372Z,96462.91
2022-12-18T21:52:31.641Z,96463.47
2022-12-18T21:55:06.657Z,96433.16
2022-12-18T21:57:37.169Z,96426.22
2022-12-18T22:00:06.833Z,96419.59
2022-12-18T22:02:35.398Z,96455.31
2022-12-18T22:05:05.808Z,96439.09
2022-12-18T22:07:34.186Z,96420.66
2022-12-18T22:10:02.800Z,96435.53
2022-12-18T22:12:43.901Z,96426.78
2022-12-18T22:15:21.224Z,96388.16
2022-12-18T22:17:54.415Z,96357.88
2022-12-18T22:20:30.276Z,96407.69
2022-12-18T22:22:59.062Z,96345.41
2022-12-18T22:25:31.248Z,96396.94
2022-12-18T22:28:16.788Z,96403.19
2022-12-18T22:30:45.166Z,96405.50
2022-12-18T22:33:13.573Z,96391.22
2022-12-18T22:35:43.486Z,96396.72
2022-12-18T22:38:12.148Z,96395.00
2022-12-18T22:40:40.624Z,96392.84
2022-12-18T22:43:09.069Z,96387.22
2022-12-18T22:45:38.429Z,96350.56
2022-12-18T22:48:07.638Z,96353.69
2022-12-18T22:50:36.003Z,96308.44
2022-12-18T22:53:07.983Z,96373.81
2022-12-18T22:55:36.544Z,96383.41
2022-12-18T22:58:05.295Z,96363.97
2022-12-18T23:00:33.858Z,96346.22
2022-12-18T23:03:02.471Z,96361.84
2022-12-18T23:05:32.133Z,96365.66
2022-12-18T23:08:00.888Z,96363.19
2022-12-18T23:10:30.960Z,96371.13
2022-12-18T23:12:59.338Z,96322.91
2022-12-18T23:15:28.635Z,96366.78
2022-12-18T23:17:59.304Z,96378.56
2022-12-18T23:20:28.787Z,96355.28
2022-12-18T23:22:57.262Z,96352.28
2022-12-18T23:25:25.951Z,96358.94
2022-12-18T23:27:55.721Z,96364.38
2022-12-18T23:30:24.036Z,96332.34
2022-12-18T23:32:52.397Z,96350.31
2022-12-18T23:35:20.898Z,96307.03
2022-12-18T23:37:58.700Z,96335.88
2022-12-18T23:40:28.097Z,96331.84
2022-12-18T23:42:57.947Z,96321.75
2022-12-18T23:45:26.230Z,96309.78
2022-12-18T23:47:54.939Z,96319.63
2022-12-18T23:50:29.073Z,96323.28
2022-12-18T23:53:05.591Z,96299.81
2022-12-18T23:55:35.882Z,96298.94
2022-12-18T23:58:05.693Z,96327.22
